createdAt,value
2023-05-18T00:01:30.852Z,4.98
2023-05-18T00:03:58.795Z,4.90
2023-05-18T00:06:26.129Z,4.83
2023-05-18T00:08:52.767Z,4.81
2023-05-18T00:11:19.613Z,4.83
2023-05-18T00:13:46.271Z,4.81
2023-05-18T00:16:15.767Z,4.77
2023-05-18T00:18:42.664Z,4.72
2023-05-18T00:21:09.470Z,4.65
2023-05-18T00:23:39.678Z,4.55
2023-05-18T00:26:06.459Z,4.46
2023-05-18T00:28:33.088Z,4.49
2023-05-18T00:31:00.546Z,4.49
2023-05-18T00:33:27.254Z,4.44
2023-05-18T00:35:53.940Z,4.44
2023-05-18T00:38:20.721Z,4.42
2023-05-18T00:40:47.387Z,4.37
2023-05-18T00:43:14.091Z,4.34
2023-05-18T00:45:40.792Z,4.32
2023-05-18T00:48:07.713Z,4.29
2023-05-18T00:50:35.164Z,4.27
2023-05-18T00:53:02.110Z,4.23
2023-05-18T00:55:29.171Z,4.20
2023-05-18T00:57:57.536Z,4.16
2023-05-18T01:00:24.596Z,4.15
2023-05-18T01:02:52.995Z,4.16
2023-05-18T01:05:22.341Z,4.14
2023-05-18T01:07:50.611Z,4.10
2023-05-18T01:10:19.846Z,4.10
2023-05-18T01:12:56.645Z,4.06
2023-05-18T01:15:37.313Z,4.00
2023-05-18T01:18:07.035Z,3.92
2023-05-18T01:20:59.856Z,3.93
2023-05-18T01:23:56.785Z,3.94
2023-05-18T01:26:37.701Z,3.90
2023-05-18T01:29:09.189Z,3.87
2023-05-18T01:31:36.224Z,3.86
2023-05-18T01:34:02.992Z,3.83
2023-05-18T01:36:29.742Z,3.85
2023-05-18T01:39:01.495Z,3.81
2023-05-18T01:41:29.822Z,3.78
2023-05-18T01:44:17.892Z,3.75
2023-05-18T01:47:01.241Z,3.67
2023-05-18T01:49:31.362Z,3.67
2023-05-18T01:52:03.774Z,3.64
2023-05-18T01:54:32.341Z,3.62
2023-05-18T01:57:01.144Z,3.60
2023-05-18T01:59:28.383Z,3.58
2023-05-18T02:02:00.130Z,3.54
2023-05-18T02:04:28.130Z,3.51
2023-05-18T02:06:55.724Z,3.47
2023-05-18T02:09:22.981Z,3.46
2023-05-18T02:11:49.846Z,3.45
2023-05-18T02:14:16.805Z,3.44
2023-05-18T02:16:47.347Z,3.40
2023-05-18T02:19:15.024Z,3.38
2023-05-18T02:21:43.652Z,3.36
2023-05-18T02:24:10.725Z,3.34
2023-05-18T02:26:37.830Z,3.30
2023-05-18T02:29:11.688Z,3.27
2023-05-18T02:31:38.906Z,3.23
2023-05-18T02:34:06.138Z,3.22
2023-05-18T02:36:40.455Z,3.22
2023-05-18T02:39:07.790Z,3.20
2023-05-18T02:41:35.284Z,3.18
2023-05-18T02:44:03.477Z,3.16
2023-05-18T02:46:30.442Z,3.14
2023-05-18T02:48:57.772Z,3.12
2023-05-18T02:51:25.228Z,3.10
2023-05-18T02:53:52.341Z,3.08
2023-05-18T02:56:19.233Z,3.07
2023-05-18T02:58:45.970Z,3.07
2023-05-18T03:01:12.798Z,3.05
2023-05-18T03:03:42.556Z,2.98
2023-05-18T03:06:09.949Z,2.98
2023-05-18T03:08:37.445Z,2.97
2023-05-18T03:11:04.698Z,2.95
2023-05-18T03:13:31.465Z,2.93
2023-05-18T03:15:58.646Z,2.89
2023-05-18T03:18:25.744Z,2.87
2023-05-18T03:20:52.812Z,2.85
2023-05-18T03:23:20.476Z,2.84
2023-05-18T03:25:47.157Z,2.81
2023-05-18T03:28:13.835Z,2.80
2023-05-18T03:30:40.584Z,2.77
2023-05-18T03:33:07.411Z,2.75
2023-05-18T03:35:34.318Z,2.71
2023-05-18T03:38:01.051Z,2.69
2023-05-18T03:40:27.782Z,2.68
2023-05-18T03:42:54.510Z,2.68
2023-05-18T03:45:21.325Z,2.66
2023-05-18T03:47:48.165Z,2.63
2023-05-18T03:50:14.991Z,2.64
2023-05-18T03:52:44.636Z,2.61
2023-05-18T03:55:12.304Z,2.63
2023-05-18T03:57:39.467Z,2.64
2023-05-18T04:00:13.390Z,2.66
2023-05-18T04:02:40.429Z,2.67
2023-05-18T04:05:08.678Z,2.71
2023-05-18T04:07:43.684Z,2.69
2023-05-18T04:10:12.154Z,2.72
2023-05-18T04:12:39.269Z,2.74
2023-05-18T04:15:06.632Z,2.79
2023-05-18T04:17:34.065Z,2.81
2023-05-18T04:20:02.111Z,2.81
2023-05-18T04:22:31.281Z,2.85
2023-05-18T04:24:58.002Z,2.92
2023-05-18T04:27:25.101Z,2.96
2023-05-18T04:29:52.097Z,3.01
2023-05-18T04:32:19.224Z,3.05
2023-05-18T04:34:49.618Z,3.13
2023-05-18T04:37:18.037Z,3.22
2023-05-18T04:39:44.752Z,3.33
2023-05-18T04:42:14.068Z,3.37
2023-05-18T04:44:40.791Z,3.44
2023-05-18T04:47:08.611Z,3.51
2023-05-18T04:49:35.603Z,3.64
2023-05-18T04:52:02.374Z,3.85
2023-05-18T04:54:32.958Z,3.83
2023-05-18T04:56:59.805Z,3.87
2023-05-18T04:59:26.628Z,3.98
2023-05-18T05:01:53.938Z,4.06
2023-05-18T05:04:24.042Z,4.17
2023-05-18T05:06:50.995Z,4.34
2023-05-18T05:09:18.108Z,4.41
2023-05-18T05:11:44.864Z,4.46
2023-05-18T05:14:11.578Z,4.57
2023-05-18T05:16:39.142Z,4.66
2023-05-18T05:19:06.204Z,4.79
2023-05-18T05:21:33.118Z,4.97
2023-05-18T05:24:01.689Z,5.12
2023-05-18T05:26:28.467Z,5.21
2023-05-18T05:28:55.132Z,5.31
2023-05-18T05:31:21.783Z,5.38
2023-05-18T05:33:48.477Z,5.46
2023-05-18T05:36:15.211Z,5.56
2023-05-18T05:38:42.321Z,5.64
2023-05-18T05:41:09.140Z,5.79
2023-05-18T05:43:35.893Z,5.91
2023-05-18T05:46:02.987Z,5.98
2023-05-18T05:48:29.638Z,6.07
2023-05-18T05:50:56.812Z,6.09
2023-05-18T05:53:23.663Z,6.18
2023-05-18T05:55:50.517Z,6.33
2023-05-18T05:58:17.676Z,6.40
2023-05-18T06:00:46.225Z,6.45
2023-05-18T06:03:13.052Z,6.54
2023-05-18T06:05:39.804Z,6.67
2023-05-18T06:08:06.501Z,6.70
2023-05-18T06:10:33.202Z,6.85
2023-05-18T06:13:00.012Z,6.94
2023-05-18T06:15:27.918Z,6.96
2023-05-18T06:17:54.951Z,7.04
2023-05-18T06:20:22.110Z,7.02
2023-05-18T06:22:48.900Z,7.02
2023-05-18T06:25:15.895Z,7.07
2023-05-18T06:27:44.502Z,7.10
2023-05-18T06:30:11.695Z,7.24
2023-05-18T06:32:38.708Z,7.35
2023-05-18T06:35:13.121Z,7.44
2023-05-18T06:37:40.030Z,7.36
2023-05-18T06:40:08.620Z,7.56
2023-05-18T06:42:35.524Z,7.63
2023-05-18T06:45:03.403Z,7.74
2023-05-18T06:47:30.200Z,7.86
2023-05-18T06:49:56.930Z,7.92
2023-05-18T06:52:25.612Z,7.80
2023-05-18T06:54:53.685Z,7.90
2023-05-18T06:57:20.781Z,7.98
2023-05-18T06:59:53.509Z,7.97
2023-05-18T07:02:21.320Z,8.02
2023-05-18T07:04:49.490Z,8.20
2023-05-18T07:07:17.084Z,8.32
2023-05-18T07:09:45.602Z,8.44
2023-05-18T07:12:13.052Z,8.66
2023-05-18T07:14:39.711Z,8.81
2023-05-18T07:17:07.142Z,8.93
2023-05-18T07:19:35.360Z,9.22
2023-05-18T07:22:02.149Z,9.34
2023-05-18T07:24:28.821Z,9.43
2023-05-18T07:26:55.535Z,9.69
2023-05-18T07:29:22.279Z,9.86
2023-05-18T07:31:49.041Z,9.97
2023-05-18T07:34:15.800Z,9.92
2023-05-18T07:36:48.703Z,9.98
2023-05-18T07:39:19.448Z,10.26
2023-05-18T07:41:48.522Z,10.48
2023-05-18T07:44:15.847Z,10.71
2023-05-18T07:46:43.409Z,10.71
2023-05-18T07:49:10.129Z,10.78
2023-05-18T07:51:37.009Z,10.62
2023-05-18T07:54:05.243Z,10.76
2023-05-18T07:56:31.932Z,10.97
2023-05-18T07:58:58.652Z,11.12
2023-05-18T08:01:27.761Z,11.33
2023-05-18T08:03:54.752Z,11.36
2023-05-18T08:06:21.716Z,11.60
2023-05-18T08:08:48.595Z,11.67
2023-05-18T08:11:15.301Z,11.58
2023-05-18T08:13:42.029Z,11.70
2023-05-18T08:16:12.237Z,11.74
2023-05-18T08:18:40.170Z,11.52
2023-05-18T08:21:10.345Z,11.74
2023-05-18T08:23:37.243Z,11.99
2023-05-18T08:26:04.232Z,12.09
2023-05-18T08:28:31.756Z,12.45
2023-05-18T08:30:58.682Z,12.54
2023-05-18T08:33:25.881Z,12.25
2023-05-18T08:35:52.900Z,12.33
2023-05-18T08:38:19.585Z,12.19
2023-05-18T08:40:55.183Z,12.31
2023-05-18T08:43:25.658Z,12.55
2023-05-18T08:46:06.488Z,12.52
2023-05-18T08:48:34.308Z,12.60
2023-05-18T08:51:03.156Z,12.67
2023-05-18T08:53:31.237Z,12.94
2023-05-18T08:55:58.552Z,13.03
2023-05-18T08:58:34.499Z,13.12
2023-05-18T09:01:01.909Z,13.05
2023-05-18T09:03:29.825Z,12.92
2023-05-18T09:05:59.310Z,12.94
2023-05-18T09:08:26.359Z,12.97
2023-05-18T09:10:56.747Z,12.84
2023-05-18T09:13:23.686Z,12.61
2023-05-18T09:15:51.503Z,12.57
2023-05-18T09:18:18.161Z,12.69
2023-05-18T09:20:45.564Z,12.64
2023-05-18T09:23:13.135Z,12.71
2023-05-18T09:25:49.678Z,12.67
2023-05-18T09:28:39.922Z,13.02
2023-05-18T09:31:26.797Z,12.94
2023-05-18T09:33:53.603Z,13.07
2023-05-18T09:36:26.216Z,13.09
2023-05-18T09:38:53.292Z,13.23
2023-05-18T09:41:20.163Z,13.01
2023-05-18T09:43:50.867Z,13.00
2023-05-18T09:46:18.308Z,13.12
2023-05-18T09:48:52.294Z,13.37
2023-05-18T09:51:19.105Z,13.38
2023-05-18T09:53:53.239Z,13.44
2023-05-18T09:56:20.144Z,13.26
2023-05-18T09:58:47.681Z,13.32
2023-05-18T10:01:14.447Z,13.16
2023-05-18T10:03:41.293Z,13.46
2023-05-18T10:06:09.940Z,13.65
2023-05-18T10:08:37.792Z,13.42
2023-05-18T10:11:05.679Z,13.20
2023-05-18T10:13:34.094Z,13.22
2023-05-18T10:16:25.897Z,13.58
2023-05-18T10:18:54.847Z,13.52
2023-05-18T10:21:24.699Z,13.72
2023-05-18T10:23:52.826Z,13.82
2023-05-18T10:26:23.399Z,13.91
2023-05-18T10:28:52.716Z,13.80
2023-05-18T10:31:19.795Z,13.84
2023-05-18T10:33:47.091Z,14.00
2023-05-18T10:36:15.263Z,13.79
2023-05-18T10:38:45.261Z,13.70
2023-05-18T10:41:13.631Z,13.62
2023-05-18T10:43:42.021Z,13.53
2023-05-18T10:46:09.653Z,13.76
2023-05-18T10:48:40.263Z,13.61
2023-05-18T10:51:08.246Z,13.57
2023-05-18T10:53:36.588Z,13.46
2023-05-18T10:56:03.690Z,13.49
2023-05-18T10:58:32.585Z,13.80
2023-05-18T11:01:01.901Z,13.95
2023-05-18T11:03:28.869Z,13.92
2023-05-18T11:06:08.120Z,14.16
2023-05-18T11:08:35.481Z,14.50
2023-05-18T11:11:05.012Z,14.50
2023-05-18T11:13:32.875Z,14.78
2023-05-18T11:15:59.522Z,14.58
2023-05-18T11:18:49.958Z,13.93
2023-05-18T11:21:36.002Z,14.24
2023-05-18T11:24:31.358Z,14.22
2023-05-18T11:27:07.540Z,14.50
2023-05-18T11:29:48.413Z,14.51
2023-05-18T11:32:31.371Z,14.41
2023-05-18T11:34:59.070Z,14.06
2023-05-18T11:37:41.385Z,14.79
2023-05-18T11:40:13.621Z,15.04
2023-05-18T11:42:40.776Z,15.48
2023-05-18T11:45:09.183Z,15.56
2023-05-18T11:47:42.413Z,14.80
2023-05-18T11:50:14.822Z,14.81
2023-05-18T11:52:51.816Z,14.52
2023-05-18T11:55:20.426Z,14.91
2023-05-18T11:57:53.190Z,15.31
2023-05-18T12:00:20.555Z,15.39
2023-05-18T12:02:48.938Z,15.44
2023-05-18T12:05:16.287Z,15.18
2023-05-18T12:07:43.087Z,14.92
2023-05-18T12:10:17.688Z,14.83
2023-05-18T12:12:49.216Z,14.79
2023-05-18T12:15:17.406Z,14.90
2023-05-18T12:17:46.705Z,14.77
2023-05-18T12:20:15.672Z,14.74
2023-05-18T12:22:44.578Z,15.15
2023-05-18T12:25:11.713Z,16.07
2023-05-18T12:27:42.832Z,15.63
2023-05-18T12:30:17.830Z,15.43
2023-05-18T12:32:49.224Z,15.10
2023-05-18T12:35:15.954Z,15.55
2023-05-18T12:37:45.186Z,15.89
2023-05-18T12:40:19.481Z,16.07
2023-05-18T12:42:56.704Z,16.40
2023-05-18T12:45:26.120Z,16.70
2023-05-18T12:47:55.072Z,16.75
2023-05-18T12:50:23.623Z,16.30
2023-05-18T12:52:51.099Z,15.40
2023-05-18T12:55:21.885Z,15.51
2023-05-18T12:58:03.385Z,15.43
2023-05-18T13:00:34.382Z,15.73
2023-05-18T13:03:15.627Z,15.08
2023-05-18T13:05:47.792Z,14.89
2023-05-18T13:08:23.990Z,15.37
2023-05-18T13:11:01.178Z,15.40
2023-05-18T13:13:35.440Z,15.25
2023-05-18T13:16:02.116Z,15.24
2023-05-18T13:18:28.924Z,15.19
2023-05-18T13:20:58.186Z,15.25
2023-05-18T13:23:29.935Z,15.53
2023-05-18T13:25:58.914Z,15.15
2023-05-18T13:28:27.185Z,14.86
2023-05-18T13:30:53.904Z,14.96
2023-05-18T13:33:21.511Z,14.97
2023-05-18T13:35:49.864Z,15.12
2023-05-18T13:38:16.955Z,15.83
2023-05-18T13:40:43.691Z,16.27
2023-05-18T13:43:12.870Z,16.52
2023-05-18T13:45:41.126Z,16.28
2023-05-18T13:48:10.721Z,16.52
2023-05-18T13:50:38.138Z,16.06
2023-05-18T13:53:04.863Z,16.01
2023-05-18T13:55:31.827Z,15.91
2023-05-18T13:57:58.815Z,15.96
2023-05-18T14:00:26.313Z,16.60
2023-05-18T14:02:56.653Z,16.79
2023-05-18T14:05:23.650Z,16.79
2023-05-18T14:07:52.492Z,16.49
2023-05-18T14:10:19.627Z,16.06
2023-05-18T14:12:46.734Z,16.33
2023-05-18T14:15:14.272Z,16.64
2023-05-18T14:17:44.398Z,16.93
2023-05-18T14:20:12.498Z,17.05
2023-05-18T14:22:39.608Z,17.48
2023-05-18T14:25:06.617Z,17.66
2023-05-18T14:27:33.404Z,17.80
2023-05-18T14:30:00.196Z,17.66
2023-05-18T14:32:26.996Z,17.80
2023-05-18T14:34:55.891Z,17.73
2023-05-18T14:37:22.725Z,18.03
2023-05-18T14:39:49.469Z,18.37
2023-05-18T14:42:16.243Z,17.10
2023-05-18T14:44:43.025Z,16.69
2023-05-18T14:47:10.704Z,16.55
2023-05-18T14:49:38.032Z,17.01
2023-05-18T14:52:05.325Z,16.83
2023-05-18T14:54:32.001Z,16.97
2023-05-18T14:56:59.717Z,17.01
2023-05-18T14:59:26.422Z,16.40
2023-05-18T15:01:53.271Z,16.18
2023-05-18T15:04:21.882Z,16.22
2023-05-18T15:06:49.942Z,16.19
2023-05-18T15:09:17.296Z,15.91
2023-05-18T15:11:44.170Z,15.78
2023-05-18T15:14:10.896Z,15.72
2023-05-18T15:16:38.943Z,15.82
2023-05-18T15:19:05.980Z,15.92
2023-05-18T15:21:32.827Z,15.54
2023-05-18T15:23:59.476Z,15.46
2023-05-18T15:26:26.259Z,15.41
2023-05-18T15:28:52.968Z,15.42
2023-05-18T15:31:19.809Z,15.27
2023-05-18T15:33:46.977Z,15.24
2023-05-18T15:36:13.766Z,15.18
2023-05-18T15:38:41.142Z,15.23
2023-05-18T15:41:08.096Z,15.10
2023-05-18T15:43:36.630Z,15.12
2023-05-18T15:46:03.525Z,15.12
2023-05-18T15:48:30.350Z,15.13
2023-05-18T15:50:57.161Z,15.07
2023-05-18T15:53:23.941Z,15.07
2023-05-18T15:55:50.951Z,15.05
2023-05-18T15:58:17.633Z,14.92
2023-05-18T16:00:44.434Z,14.88
2023-05-18T16:03:11.287Z,14.94
2023-05-18T16:05:38.420Z,14.75
2023-05-18T16:08:05.752Z,14.84
2023-05-18T16:10:32.588Z,14.81
2023-05-18T16:13:05.708Z,14.71
2023-05-18T16:15:34.342Z,14.78
2023-05-18T16:18:01.863Z,14.83
2023-05-18T16:20:28.788Z,14.56
2023-05-18T16:22:56.116Z,14.65
2023-05-18T16:25:23.564Z,14.59
2023-05-18T16:27:50.763Z,14.59
2023-05-18T16:30:17.641Z,14.66
2023-05-18T16:32:44.570Z,14.71
2023-05-18T16:35:11.608Z,14.72
2023-05-18T16:37:38.986Z,14.76
2023-05-18T16:40:06.808Z,14.70
2023-05-18T16:42:34.042Z,14.65
2023-05-18T16:45:00.873Z,14.68
2023-05-18T16:47:27.678Z,14.73
2023-05-18T16:49:54.587Z,14.63
2023-05-18T16:52:21.616Z,14.63
2023-05-18T16:54:48.496Z,14.66
2023-05-18T16:57:15.714Z,14.62
2023-05-18T16:59:42.630Z,14.50
2023-05-18T17:02:16.242Z,14.43
2023-05-18T17:04:44.891Z,14.47
2023-05-18T17:07:12.484Z,14.48
2023-05-18T17:09:41.686Z,14.41
2023-05-18T17:12:12.224Z,14.21
2023-05-18T17:14:38.950Z,14.14
2023-05-18T17:17:06.776Z,13.95
2023-05-18T17:19:35.255Z,14.21
2023-05-18T17:22:03.442Z,14.06
2023-05-18T17:24:30.450Z,14.16
2023-05-18T17:26:57.227Z,14.21
2023-05-18T17:29:23.939Z,14.15
2023-05-18T17:31:50.738Z,14.22
2023-05-18T17:34:17.528Z,14.02
2023-05-18T17:36:45.159Z,13.91
2023-05-18T17:39:12.572Z,13.87
2023-05-18T17:41:39.323Z,13.86
2023-05-18T17:44:06.318Z,13.67
2023-05-18T17:46:33.320Z,13.80
2023-05-18T17:49:02.113Z,13.76
2023-05-18T17:51:28.937Z,13.83
2023-05-18T17:53:56.652Z,13.81
2023-05-18T17:56:24.897Z,13.68
2023-05-18T17:58:53.284Z,13.60
2023-05-18T18:01:20.326Z,13.46
2023-05-18T18:03:48.318Z,13.54
2023-05-18T18:06:15.337Z,13.53
2023-05-18T18:08:42.986Z,13.53
2023-05-18T18:11:09.769Z,13.47
2023-05-18T18:13:36.555Z,13.52
2023-05-18T18:16:03.422Z,13.47
2023-05-18T18:18:30.448Z,13.51
2023-05-18T18:20:57.213Z,13.50
2023-05-18T18:23:23.911Z,13.43
2023-05-18T18:25:51.047Z,13.32
2023-05-18T18:28:20.942Z,13.26
2023-05-18T18:30:47.703Z,13.20
2023-05-18T18:33:14.590Z,13.17
2023-05-18T18:35:41.317Z,13.12
2023-05-18T18:38:09.013Z,13.06
2023-05-18T18:40:35.880Z,13.05
2023-05-18T18:43:02.609Z,12.87
2023-05-18T18:45:30.936Z,12.83
2023-05-18T18:47:58.827Z,12.80
2023-05-18T18:50:26.572Z,12.62
2023-05-18T18:52:53.402Z,12.65
2023-05-18T18:55:20.590Z,12.69
2023-05-18T18:57:47.344Z,12.67
2023-05-18T19:00:32.011Z,12.63
2023-05-18T19:02:58.756Z,12.61
2023-05-18T19:05:25.961Z,12.50
2023-05-18T19:07:55.803Z,12.37
2023-05-18T19:10:23.266Z,12.35
2023-05-18T19:12:49.992Z,12.29
2023-05-18T19:15:16.859Z,12.35
2023-05-18T19:17:46.013Z,12.33
2023-05-18T19:20:13.024Z,12.23
2023-05-18T19:22:40.367Z,12.24
2023-05-18T19:25:07.271Z,12.27
2023-05-18T19:27:33.931Z,12.20
2023-05-18T19:30:02.831Z,12.18
2023-05-18T19:32:29.894Z,12.16
2023-05-18T19:34:56.797Z,12.15
2023-05-18T19:37:23.497Z,12.07
2023-05-18T19:39:50.272Z,12.03
2023-05-18T19:42:17.052Z,11.96
2023-05-18T19:44:43.707Z,11.93
2023-05-18T19:47:11.185Z,11.94
2023-05-18T19:49:37.891Z,11.93
2023-05-18T19:52:08.320Z,11.88
2023-05-18T19:54:40.788Z,11.82
2023-05-18T19:57:07.619Z,11.70
2023-05-18T19:59:34.359Z,11.67
2023-05-18T20:02:03.795Z,11.62
2023-05-18T20:04:30.389Z,11.46
2023-05-18T20:06:57.792Z,11.45
2023-05-18T20:09:24.461Z,11.48
2023-05-18T20:11:51.305Z,11.44
2023-05-18T20:14:18.086Z,11.39
2023-05-18T20:16:44.828Z,11.34
2023-05-18T20:19:13.860Z,11.29
2023-05-18T20:21:41.334Z,11.22
2023-05-18T20:24:08.074Z,11.13
2023-05-18T20:26:34.754Z,11.08
2023-05-18T20:29:01.450Z,11.05
2023-05-18T20:31:28.135Z,11.05
2023-05-18T20:33:57.591Z,11.04
2023-05-18T20:36:25.340Z,10.95
2023-05-18T20:38:53.356Z,10.93
2023-05-18T20:41:22.847Z,10.90
2023-05-18T20:43:51.188Z,10.79
2023-05-18T20:46:20.613Z,10.73
2023-05-18T20:48:47.407Z,10.68
2023-05-18T20:51:18.812Z,10.66
2023-05-18T20:53:47.072Z,10.63
2023-05-18T20:56:15.741Z,10.55
2023-05-18T20:58:48.742Z,10.48
2023-05-18T21:01:16.855Z,10.36
2023-05-18T21:03:45.404Z,10.39
2023-05-18T21:06:13.219Z,10.36
2023-05-18T21:08:40.637Z,10.32
2023-05-18T21:11:07.475Z,10.31
2023-05-18T21:13:36.787Z,10.29
2023-05-18T21:16:06.705Z,10.23
2023-05-18T21:18:37.446Z,10.25
2023-05-18T21:21:04.586Z,10.28
2023-05-18T21:23:31.458Z,10.36
2023-05-18T21:25:58.293Z,10.34
2023-05-18T21:28:25.213Z,10.34
2023-05-18T21:30:52.378Z,10.35
2023-05-18T21:33:19.428Z,10.42
2023-05-18T21:35:46.332Z,10.49
2023-05-18T21:38:13.126Z,10.51
2023-05-18T21:40:43.566Z,10.51
2023-05-18T21:43:10.830Z,10.50
2023-05-18T21:45:38.580Z,10.45
2023-05-18T21:48:05.868Z,10.40
2023-05-18T21:50:34.880Z,10.39
2023-05-18T21:53:03.219Z,10.33
2023-05-18T21:55:33.451Z,10.30
2023-05-18T21:58:00.271Z,10.27
2023-05-18T22:00:27.248Z,10.28
2023-05-18T22:02:54.230Z,10.31
2023-05-18T22:05:21.122Z,10.34
2023-05-18T22:07:48.563Z,10.30
2023-05-18T22:10:15.530Z,10.23
2023-05-18T22:12:43.622Z,10.22
2023-05-18T22:15:10.879Z,10.14
2023-05-18T22:17:38.900Z,10.12
2023-05-18T22:20:09.739Z,10.04
2023-05-18T22:22:36.485Z,10.02
2023-05-18T22:25:03.181Z,10.02
2023-05-18T22:27:30.209Z,9.95
2023-05-18T22:29:57.354Z,9.97
2023-05-18T22:32:24.619Z,10.00
2023-05-18T22:34:52.076Z,10.01
2023-05-18T22:37:18.970Z,9.95
2023-05-18T22:39:45.607Z,9.95
2023-05-18T22:42:12.418Z,9.96
2023-05-18T22:44:39.093Z,9.92
2023-05-18T22:47:06.156Z,9.94
2023-05-18T22:49:32.783Z,9.85
2023-05-18T22:51:59.968Z,9.83
2023-05-18T22:54:26.644Z,9.81
2023-05-18T22:56:53.350Z,9.78
2023-05-18T22:59:20.489Z,9.84
2023-05-18T23:01:47.846Z,9.86
2023-05-18T23:04:19.680Z,9.85
2023-05-18T23:06:48.849Z,9.87
2023-05-18T23:09:16.000Z,9.80
2023-05-18T23:11:46.185Z,9.78
2023-05-18T23:14:13.000Z,9.77
2023-05-18T23:16:43.344Z,9.75
2023-05-18T23:19:12.578Z,9.66
2023-05-18T23:21:40.449Z,9.63
2023-05-18T23:24:08.036Z,9.56
2023-05-18T23:26:34.704Z,9.51
2023-05-18T23:29:01.604Z,9.49
2023-05-18T23:31:28.951Z,9.44
2023-05-18T23:33:56.119Z,9.39
2023-05-18T23:36:27.504Z,9.37
2023-05-18T23:39:00.868Z,9.33
2023-05-18T23:41:29.581Z,9.29
2023-05-18T23:43:57.828Z,9.25
2023-05-18T23:46:25.424Z,9.23
2023-05-18T23:48:52.554Z,9.17
2023-05-18T23:51:23.229Z,9.16
2023-05-18T23:53:51.985Z,9.10
2023-05-18T23:56:18.901Z,9.09
2023-05-18T23:58:47.145Z,8.99
